Terminal Aerodrome Forecast
Issued by NWS

Current Version | Previous Version | Text Only | Print | Product List | Glossary On
Versions: 1 2 3 4 5 6 7 8 9 10 11 12
084
FTUS45 KPSR 291120
TAFIPL
TAF
KIPL 291120Z 2912/3012 27004KT P6SM BKN250
     FM291600 VRB03KT P6SM BKN250
     FM292000 14007KT P6SM BKN250
     FM300200 26010KT P6SM BKN250=

USA.gov is the U.S. government's official web portal to all federal, state and local government web resources and services.